Terminal Aerodrome Forecast
Issued by NWS Paducah, KY

Home | Current Version | Previous Version | Text Only | Print | Product List | Glossary Off
Versions: 1 2 3 4 5 6 7 8 9 10 11 12 13 14 15

082
FTUS43 KPAH 221120
TAFPAH
TAF
KPAH 221120Z 2212/2312 04012KT P6SM SCT050 BKN100
     FM221500 05013KT P6SM SCT100 BKN250
     FM230000 06007KT P6SM SCT080 BKN150
     FM230600 07006KT P6SM SCT040 BKN080=

USA.gov is the U.S. government's official web portal to all federal, state and local government web resources and services.